Terminal Aerodrome Forecast
Issued by NWS La Crosse, WI

Home | Current Version | Previous Version | Text Only | Print | Product List | Glossary On
Versions: 1 2 3 4 5 6 7 8 9 10 11 12 13 14 15 16 17 18 19 20 21 22 23 24 25 26 27 28 29 30 31 32 33 34 35 36 37 38 39 40 41 42 43 44 45 46 47
000
FTUS43 KARX 212013 AAA
TAFLSE
TAF AMD
KLSE 212013Z 2120/2218 17008KT P6SM SCT025
      TEMPO 2120/2122 BKN025
     FM220200 16005KT P6SM VCTS SCT040CB
     FM220700 18004KT P6SM SCT035
     FM220900 VRB03KT 1SM BR BKN003
      TEMPO 2210/2213 1/2SM FG
     FM221345 VRB03KT 4SM BR SCT003
     FM221500 30005KT 6SM HZ SCT045=

USA.gov is the U.S. government's official web portal to all federal, state and local government web resources and services.